createdAt,value
2023-03-29T00:01:04.505Z,50.16
2023-03-29T00:03:40.870Z,50.48
2023-03-29T00:06:15.299Z,50.24
2023-03-29T00:08:51.102Z,50.24
2023-03-29T00:11:25.728Z,50.29
2023-03-29T00:13:59.130Z,50.46
2023-03-29T00:16:31.129Z,50.08
2023-03-29T00:19:03.904Z,50.38
2023-03-29T00:21:38.692Z,50.54
2023-03-29T00:24:11.850Z,50.38
2023-03-29T00:26:43.903Z,50.44
2023-03-29T00:29:20.078Z,50.40
2023-03-29T00:31:54.011Z,50.38
2023-03-29T00:34:31.161Z,50.65
2023-03-29T00:37:06.255Z,50.45
2023-03-29T00:39:42.246Z,50.59
2023-03-29T00:42:16.315Z,50.68
2023-03-29T00:45:07.841Z,50.54
2023-03-29T00:47:43.166Z,50.69
2023-03-29T00:50:16.944Z,50.66
2023-03-29T00:52:55.407Z,50.85
2023-03-29T00:55:32.497Z,50.97
2023-03-29T00:58:05.622Z,50.96
2023-03-29T01:00:39.466Z,50.92
2023-03-29T01:03:26.794Z,50.82
2023-03-29T01:06:01.797Z,51.24
2023-03-29T01:08:40.767Z,51.40
2023-03-29T01:11:17.178Z,51.44
2023-03-29T01:13:56.250Z,51.56
2023-03-29T01:16:30.502Z,51.84
2023-03-29T01:19:03.916Z,51.69
2023-03-29T01:21:40.805Z,51.66
2023-03-29T01:24:44.094Z,51.59
2023-03-29T01:27:18.975Z,51.68
2023-03-29T01:29:58.071Z,51.65
2023-03-29T01:32:38.213Z,51.75
2023-03-29T01:35:14.706Z,51.91
2023-03-29T01:37:53.053Z,51.88
2023-03-29T01:40:27.248Z,52.17
2023-03-29T01:43:10.496Z,52.09
2023-03-29T01:45:46.620Z,51.99
2023-03-29T01:48:25.614Z,52.31
2023-03-29T01:51:05.000Z,52.26
2023-03-29T01:53:41.686Z,52.07
2023-03-29T01:56:20.433Z,52.56
2023-03-29T01:58:55.631Z,52.65
2023-03-29T02:01:38.470Z,52.54
2023-03-29T02:04:14.293Z,52.44
2023-03-29T02:06:50.343Z,52.64
2023-03-29T02:09:22.939Z,52.76
2023-03-29T02:11:57.623Z,52.72
2023-03-29T02:14:35.159Z,52.81
2023-03-29T02:17:19.888Z,52.67
2023-03-29T02:19:53.764Z,53.16
2023-03-29T02:22:31.805Z,53.24
2023-03-29T02:25:08.460Z,53.34
2023-03-29T02:27:41.121Z,53.27
2023-03-29T02:30:17.154Z,53.31
2023-03-29T02:32:56.787Z,53.59
2023-03-29T02:35:37.290Z,53.57
2023-03-29T02:38:14.963Z,53.76
2023-03-29T02:40:48.553Z,53.83
2023-03-29T02:43:24.521Z,53.76
2023-03-29T02:46:00.604Z,53.88
2023-03-29T02:48:34.525Z,53.90
2023-03-29T02:51:12.289Z,53.83
2023-03-29T02:53:46.287Z,54.09
2023-03-29T02:56:19.234Z,54.09
2023-03-29T02:58:51.255Z,54.03
2023-03-29T03:01:23.858Z,54.14
2023-03-29T03:03:57.109Z,54.10
2023-03-29T03:06:31.973Z,54.33
2023-03-29T03:09:06.050Z,54.33
2023-03-29T03:11:39.694Z,54.18
2023-03-29T03:14:14.331Z,54.28
2023-03-29T03:16:50.735Z,54.38
2023-03-29T03:19:24.282Z,54.60
2023-03-29T03:21:59.147Z,54.88
2023-03-29T03:24:34.975Z,54.76
2023-03-29T03:27:09.697Z,54.61
2023-03-29T03:29:42.272Z,54.68
2023-03-29T03:32:14.417Z,54.86
2023-03-29T03:34:48.083Z,54.92
2023-03-29T03:37:20.307Z,54.88
2023-03-29T03:39:52.345Z,55.10
2023-03-29T03:42:25.573Z,55.10
2023-03-29T03:44:58.380Z,55.08
2023-03-29T03:47:32.177Z,55.09
2023-03-29T03:50:04.984Z,54.98
2023-03-29T03:52:38.949Z,55.08
2023-03-29T03:55:13.106Z,55.21
2023-03-29T03:57:44.983Z,55.19
2023-03-29T04:00:21.406Z,55.24
2023-03-29T04:02:56.480Z,55.32
2023-03-29T04:05:29.684Z,55.25
2023-03-29T04:08:06.826Z,55.42
2023-03-29T04:10:44.414Z,55.56
2023-03-29T04:13:17.803Z,55.46
2023-03-29T04:16:00.952Z,55.46
2023-03-29T04:18:34.374Z,55.61
2023-03-29T04:21:10.002Z,55.58
2023-03-29T04:23:47.886Z,55.59
2023-03-29T04:26:21.004Z,55.67
2023-03-29T04:28:53.720Z,55.83
2023-03-29T04:31:29.519Z,55.71
2023-03-29T04:34:03.820Z,55.78
2023-03-29T04:36:37.121Z,55.83
2023-03-29T04:39:10.359Z,55.88
2023-03-29T04:41:42.964Z,56.06
2023-03-29T04:44:17.076Z,56.04
2023-03-29T04:46:49.028Z,56.17
2023-03-29T04:51:58.006Z,56.12
2023-03-29T04:54:40.057Z,56.05
2023-03-29T04:57:13.240Z,56.13
2023-03-29T04:59:49.271Z,56.19
2023-03-29T05:02:24.156Z,56.11
2023-03-29T05:05:03.321Z,56.13
2023-03-29T05:07:40.487Z,56.23
2023-03-29T05:10:16.260Z,56.19
2023-03-29T05:12:51.767Z,56.12
2023-03-29T05:15:24.606Z,56.03
2023-03-29T05:17:57.228Z,56.14
2023-03-29T05:20:35.490Z,56.07
2023-03-29T05:23:08.088Z,55.87
2023-03-29T05:25:41.863Z,56.20
2023-03-29T05:28:16.519Z,56.20
2023-03-29T05:31:05.163Z,55.94
2023-03-29T05:33:38.205Z,55.98
2023-03-29T05:36:22.892Z,55.87
2023-03-29T05:39:01.267Z,55.84
2023-03-29T05:41:35.758Z,55.81
2023-03-29T05:44:11.224Z,55.72
2023-03-29T05:46:43.046Z,55.90
2023-03-29T05:49:24.210Z,55.65
2023-03-29T05:51:57.710Z,55.46
2023-03-29T05:54:30.973Z,55.46
2023-03-29T05:57:09.373Z,55.47
2023-03-29T05:59:45.314Z,55.56
2023-03-29T06:02:19.770Z,55.62
2023-03-29T06:04:59.122Z,55.24
2023-03-29T06:07:34.876Z,55.08
2023-03-29T06:10:14.691Z,55.08
2023-03-29T06:12:51.630Z,55.09
2023-03-29T06:15:26.659Z,54.84
2023-03-29T06:18:02.713Z,54.85
2023-03-29T06:20:37.801Z,54.74
2023-03-29T06:23:13.188Z,54.80
2023-03-29T06:25:49.660Z,54.76
2023-03-29T06:28:25.294Z,54.61
2023-03-29T06:31:02.949Z,54.33
2023-03-29T06:33:38.661Z,54.45
2023-03-29T06:36:20.350Z,54.55
2023-03-29T06:38:52.999Z,54.42
2023-03-29T06:41:27.763Z,54.24
2023-03-29T06:44:04.660Z,54.14
2023-03-29T06:46:42.815Z,54.02
2023-03-29T06:49:24.939Z,53.93
2023-03-29T06:52:02.979Z,53.84
2023-03-29T06:54:42.479Z,53.82
2023-03-29T06:57:14.786Z,53.78
2023-03-29T06:59:50.458Z,53.72
2023-03-29T07:02:35.099Z,53.29
2023-03-29T07:05:22.290Z,53.31
2023-03-29T07:08:02.735Z,53.29
2023-03-29T07:10:41.354Z,52.79
2023-03-29T07:13:19.797Z,52.64
2023-03-29T07:15:55.475Z,52.69
2023-03-29T07:18:32.426Z,52.56
2023-03-29T07:21:08.141Z,52.06
2023-03-29T07:23:42.508Z,51.70
2023-03-29T07:26:28.572Z,51.44
2023-03-29T07:29:04.056Z,51.07
2023-03-29T07:31:41.660Z,49.99
2023-03-29T07:34:17.609Z,49.55
2023-03-29T07:36:56.821Z,49.59
2023-03-29T07:39:31.616Z,49.78
2023-03-29T07:42:12.300Z,49.69
2023-03-29T07:44:46.003Z,49.02
2023-03-29T07:47:17.966Z,48.29
2023-03-29T07:49:52.254Z,48.27
2023-03-29T07:52:30.491Z,48.41
2023-03-29T07:55:05.374Z,47.27
2023-03-29T07:57:41.301Z,46.27
2023-03-29T08:00:29.401Z,45.95
2023-03-29T08:03:04.363Z,45.93
2023-03-29T08:05:41.956Z,45.96
2023-03-29T08:08:15.654Z,46.39
2023-03-29T08:10:47.692Z,46.01
2023-03-29T08:13:19.541Z,46.01
2023-03-29T08:15:52.974Z,45.86
2023-03-29T08:18:29.131Z,46.06
2023-03-29T08:21:06.745Z,45.16
2023-03-29T08:23:40.284Z,44.53
2023-03-29T08:26:16.282Z,43.93
2023-03-29T08:28:49.013Z,44.65
2023-03-29T08:31:24.463Z,44.07
2023-03-29T08:34:01.303Z,44.64
2023-03-29T08:36:36.055Z,44.40
2023-03-29T08:39:11.263Z,43.68
2023-03-29T08:41:54.051Z,42.51
2023-03-29T08:44:56.166Z,43.06
2023-03-29T08:47:40.753Z,43.02
2023-03-29T08:50:18.040Z,43.00
2023-03-29T08:52:58.373Z,42.87
2023-03-29T08:55:39.645Z,42.35
2023-03-29T08:58:19.146Z,43.20
2023-03-29T09:00:54.191Z,42.96
2023-03-29T09:03:29.435Z,41.84
2023-03-29T09:06:08.119Z,42.23
2023-03-29T09:08:44.927Z,42.43
2023-03-29T09:11:39.430Z,42.51
2023-03-29T09:14:50.638Z,42.14
2023-03-29T09:17:32.169Z,41.21
2023-03-29T09:20:16.301Z,40.91
2023-03-29T09:23:05.744Z,41.20
2023-03-29T09:25:54.065Z,40.63
2023-03-29T09:28:39.865Z,40.72
2023-03-29T09:31:16.794Z,39.92
2023-03-29T09:33:53.697Z,40.85
2023-03-29T09:36:34.959Z,40.52
2023-03-29T09:39:16.877Z,40.14
2023-03-29T09:41:58.070Z,40.20
2023-03-29T09:44:36.601Z,40.01
2023-03-29T09:47:22.122Z,40.02
2023-03-29T09:50:04.179Z,40.20
2023-03-29T09:52:37.801Z,39.82
2023-03-29T09:55:20.361Z,39.92
2023-03-29T09:57:56.070Z,40.32
2023-03-29T10:00:28.601Z,40.39
2023-03-29T10:03:03.129Z,40.17
2023-03-29T10:05:40.096Z,40.06
2023-03-29T10:08:22.479Z,40.22
2023-03-29T10:11:02.125Z,39.71
2023-03-29T10:13:39.400Z,39.56
2023-03-29T10:16:22.336Z,38.73
2023-03-29T10:18:58.265Z,37.22
2023-03-29T10:21:33.068Z,37.50
2023-03-29T10:24:06.804Z,37.64
2023-03-29T10:26:41.652Z,37.77
2023-03-29T10:29:17.684Z,37.85
2023-03-29T10:31:52.549Z,36.83
2023-03-29T10:34:31.932Z,36.91
2023-03-29T10:37:05.379Z,36.56
2023-03-29T10:39:40.981Z,36.25
2023-03-29T10:42:20.369Z,36.38
2023-03-29T10:45:02.617Z,36.23
2023-03-29T10:47:39.822Z,36.73
2023-03-29T10:50:24.414Z,36.29
2023-03-29T10:52:58.732Z,36.81
2023-03-29T10:55:42.436Z,36.69
2023-03-29T10:58:29.084Z,36.63
2023-03-29T11:01:06.722Z,36.12
2023-03-29T11:04:11.394Z,35.71
2023-03-29T11:06:54.615Z,35.20
2023-03-29T11:09:44.287Z,35.61
2023-03-29T11:12:26.614Z,35.55
2023-03-29T11:15:11.411Z,35.63
2023-03-29T11:17:58.943Z,34.78
2023-03-29T11:20:38.625Z,34.89
2023-03-29T11:23:26.038Z,35.17
2023-03-29T11:26:10.485Z,34.61
2023-03-29T11:28:49.992Z,34.20
2023-03-29T11:31:38.394Z,34.46
2023-03-29T11:34:26.928Z,34.76
2023-03-29T11:37:10.933Z,34.14
2023-03-29T11:39:51.255Z,34.71
2023-03-29T11:42:31.010Z,32.76
2023-03-29T11:45:14.206Z,34.35
2023-03-29T11:47:51.232Z,34.47
2023-03-29T11:50:36.637Z,33.51
2023-03-29T11:53:13.527Z,34.51
2023-03-29T11:55:51.039Z,34.75
2023-03-29T11:58:32.092Z,33.90
2023-03-29T12:01:15.252Z,33.90
2023-03-29T12:03:53.493Z,33.50
2023-03-29T12:06:38.208Z,33.51
2023-03-29T12:09:23.029Z,33.72
2023-03-29T12:12:09.589Z,32.95
2023-03-29T12:14:51.879Z,33.25
2023-03-29T12:17:32.547Z,32.84
2023-03-29T12:20:15.893Z,32.99
2023-03-29T12:22:54.542Z,32.70
2023-03-29T12:25:37.648Z,31.46
2023-03-29T12:28:25.391Z,31.11
2023-03-29T12:31:15.636Z,32.38
2023-03-29T12:34:11.368Z,31.42
2023-03-29T12:37:25.037Z,32.37
2023-03-29T12:40:01.991Z,31.94
2023-03-29T12:42:34.984Z,32.38
2023-03-29T12:45:23.664Z,31.66
2023-03-29T12:48:00.806Z,31.22
2023-03-29T12:50:39.761Z,31.26
2023-03-29T12:53:24.826Z,31.88
2023-03-29T12:56:14.439Z,30.99
2023-03-29T12:59:09.148Z,31.39
2023-03-29T13:01:54.886Z,30.82
2023-03-29T13:04:40.562Z,30.92
2023-03-29T13:07:30.025Z,31.00
2023-03-29T13:10:08.811Z,31.90
2023-03-29T13:12:49.472Z,32.49
2023-03-29T13:15:35.270Z,32.17
2023-03-29T13:18:22.144Z,31.97
2023-03-29T13:21:11.389Z,30.99
2023-03-29T13:23:56.240Z,30.60
2023-03-29T13:26:47.269Z,31.21
2023-03-29T13:29:52.249Z,31.36
2023-03-29T13:32:49.136Z,31.41
2023-03-29T13:35:37.240Z,31.42
2023-03-29T13:38:22.193Z,31.51
2023-03-29T13:41:30.699Z,31.59
2023-03-29T13:44:06.288Z,31.73
2023-03-29T13:46:42.217Z,31.18
2023-03-29T13:49:32.865Z,31.23
2023-03-29T13:52:18.635Z,31.01
2023-03-29T13:54:59.264Z,31.08
2023-03-29T13:57:48.510Z,30.97
2023-03-29T14:00:28.968Z,31.01
2023-03-29T14:03:09.619Z,30.77
2023-03-29T14:05:51.972Z,31.18
2023-03-29T14:08:28.960Z,30.83
2023-03-29T14:11:04.683Z,30.63
2023-03-29T14:13:44.061Z,30.64
2023-03-29T14:16:16.228Z,31.01
2023-03-29T14:18:53.176Z,30.67
2023-03-29T14:21:25.289Z,31.03
2023-03-29T14:24:03.872Z,30.77
2023-03-29T14:26:40.858Z,30.10
2023-03-29T14:29:21.882Z,30.10
2023-03-29T14:31:58.830Z,29.89
2023-03-29T14:34:31.861Z,29.45
2023-03-29T14:37:05.706Z,29.68
2023-03-29T14:39:43.595Z,29.72
2023-03-29T14:42:24.218Z,29.40
2023-03-29T14:45:08.160Z,29.58
2023-03-29T14:47:46.241Z,29.00
2023-03-29T14:50:29.684Z,29.53
2023-03-29T14:53:06.329Z,29.99
2023-03-29T14:55:48.673Z,30.04
2023-03-29T14:58:25.587Z,29.60
2023-03-29T15:01:01.758Z,29.13
2023-03-29T15:03:52.986Z,29.21
2023-03-29T15:06:33.976Z,29.39
2023-03-29T15:09:07.776Z,29.44
2023-03-29T15:11:41.182Z,29.33
2023-03-29T15:14:23.173Z,27.64
2023-03-29T15:17:05.320Z,27.95
2023-03-29T15:19:39.736Z,28.02
2023-03-29T15:22:22.331Z,28.06
2023-03-29T15:24:54.713Z,28.28
2023-03-29T15:27:33.151Z,28.04
2023-03-29T15:30:24.281Z,27.91
2023-03-29T15:32:57.987Z,27.49
2023-03-29T15:35:34.502Z,27.25
2023-03-29T15:38:07.380Z,27.36
2023-03-29T15:40:43.449Z,27.27
2023-03-29T15:43:16.628Z,26.51
2023-03-29T15:45:53.184Z,26.79
2023-03-29T15:48:32.456Z,27.71
2023-03-29T15:51:09.482Z,28.01
2023-03-29T15:53:43.445Z,27.94
2023-03-29T15:56:22.018Z,27.78
2023-03-29T15:58:57.935Z,27.79
2023-03-29T16:01:45.918Z,27.33
2023-03-29T16:04:30.714Z,27.75
2023-03-29T16:07:16.686Z,27.87
2023-03-29T16:10:01.575Z,28.01
2023-03-29T16:12:40.261Z,28.40
2023-03-29T16:15:24.794Z,28.48
2023-03-29T16:18:00.081Z,28.75
2023-03-29T16:20:41.949Z,28.90
2023-03-29T16:23:16.725Z,29.20
2023-03-29T16:25:53.155Z,29.24
2023-03-29T16:28:29.143Z,29.50
2023-03-29T16:31:08.180Z,29.76
2023-03-29T16:33:42.868Z,30.11
2023-03-29T16:36:18.190Z,30.30
2023-03-29T16:39:03.573Z,30.28
2023-03-29T16:41:40.153Z,30.62
2023-03-29T16:44:25.032Z,30.84
2023-03-29T16:47:09.365Z,31.03
2023-03-29T16:49:49.241Z,31.12
2023-03-29T16:52:30.205Z,31.33
2023-03-29T16:55:07.770Z,31.77
2023-03-29T16:57:53.227Z,31.88
2023-03-29T17:00:39.153Z,32.11
2023-03-29T17:03:11.142Z,32.18
2023-03-29T17:05:55.589Z,32.22
2023-03-29T17:08:38.185Z,32.30
2023-03-29T17:11:14.880Z,32.42
2023-03-29T17:13:47.469Z,32.49
2023-03-29T17:16:24.335Z,32.74
2023-03-29T17:19:06.523Z,32.76
2023-03-29T17:21:38.676Z,32.90
2023-03-29T17:24:15.427Z,33.06
2023-03-29T17:26:53.452Z,33.25
2023-03-29T17:29:28.206Z,33.48
2023-03-29T17:32:06.694Z,33.78
2023-03-29T17:34:42.492Z,33.91
2023-03-29T17:37:17.873Z,34.03
2023-03-29T17:39:54.328Z,34.15
2023-03-29T17:42:31.401Z,34.08
2023-03-29T17:45:12.532Z,34.10
2023-03-29T17:47:47.326Z,34.14
2023-03-29T17:50:26.609Z,34.29
2023-03-29T17:53:00.245Z,34.41
2023-03-29T17:55:39.815Z,34.50
2023-03-29T17:58:17.902Z,34.69
2023-03-29T18:00:52.245Z,34.70
2023-03-29T18:03:30.984Z,34.92
2023-03-29T18:06:14.426Z,35.08
2023-03-29T18:08:47.418Z,35.14
2023-03-29T18:11:29.688Z,35.27
2023-03-29T18:14:07.836Z,35.42
2023-03-29T18:16:50.475Z,35.46
2023-03-29T18:19:28.054Z,35.68
2023-03-29T18:22:02.922Z,35.66
2023-03-29T18:24:39.153Z,35.88
2023-03-29T18:27:17.062Z,36.00
2023-03-29T18:29:55.457Z,36.12
2023-03-29T18:32:27.574Z,36.10
2023-03-29T18:35:08.480Z,36.27
2023-03-29T18:37:41.804Z,36.49
2023-03-29T18:40:26.850Z,36.47
2023-03-29T18:43:08.006Z,36.56
2023-03-29T18:45:48.312Z,36.70
2023-03-29T18:48:32.748Z,36.79
2023-03-29T18:51:08.829Z,36.92
2023-03-29T18:53:53.916Z,37.05
2023-03-29T18:56:39.881Z,37.20
2023-03-29T18:59:19.858Z,37.39
2023-03-29T19:02:01.958Z,37.39
2023-03-29T19:04:43.148Z,37.48
2023-03-29T19:07:23.796Z,37.61
2023-03-29T19:09:55.753Z,37.85
2023-03-29T19:12:34.262Z,38.03
2023-03-29T19:15:23.562Z,38.14
2023-03-29T19:18:16.064Z,38.09
2023-03-29T19:20:58.729Z,38.06
2023-03-29T19:23:33.386Z,38.13
2023-03-29T19:26:11.742Z,38.36
2023-03-29T19:28:50.457Z,38.39
2023-03-29T19:31:28.855Z,38.62
2023-03-29T19:34:03.698Z,38.59
2023-03-29T19:36:40.278Z,38.73
2023-03-29T19:39:21.149Z,38.77
2023-03-29T19:42:02.958Z,38.94
2023-03-29T19:44:50.236Z,39.09
2023-03-29T19:47:26.968Z,39.30
2023-03-29T19:50:07.485Z,39.33
2023-03-29T19:52:51.330Z,39.63
2023-03-29T19:55:29.880Z,39.81
2023-03-29T19:58:10.919Z,39.64
2023-03-29T20:00:49.729Z,39.77
2023-03-29T20:03:28.858Z,40.04
2023-03-29T20:06:09.345Z,40.11
2023-03-29T20:08:51.273Z,40.64
2023-03-29T20:11:27.874Z,40.53
2023-03-29T20:14:06.839Z,40.75
2023-03-29T20:16:38.884Z,40.57
2023-03-29T20:19:19.739Z,40.78
2023-03-29T20:22:01.658Z,40.91
2023-03-29T20:24:41.510Z,40.85
2023-03-29T20:27:16.991Z,41.07
2023-03-29T20:29:50.147Z,41.20
2023-03-29T20:32:25.627Z,41.28
2023-03-29T20:35:01.147Z,41.45
2023-03-29T20:37:37.519Z,41.58
2023-03-29T20:40:20.933Z,41.70
2023-03-29T20:42:55.404Z,41.76
2023-03-29T20:45:30.401Z,41.91
2023-03-29T20:48:14.876Z,41.97
2023-03-29T20:50:54.258Z,42.08
2023-03-29T20:53:34.890Z,42.05
2023-03-29T20:56:13.242Z,42.09
2023-03-29T20:58:46.719Z,42.17
2023-03-29T21:01:22.392Z,42.40
2023-03-29T21:03:58.112Z,42.27
2023-03-29T21:06:32.896Z,42.21
2023-03-29T21:09:06.192Z,42.32
2023-03-29T21:11:47.188Z,42.38
2023-03-29T21:14:30.751Z,42.31
2023-03-29T21:17:05.482Z,42.32
2023-03-29T21:19:39.666Z,42.36
2023-03-29T21:22:14.217Z,42.28
2023-03-29T21:24:46.219Z,42.24
2023-03-29T21:27:19.454Z,42.34
2023-03-29T21:29:53.980Z,42.14
2023-03-29T21:32:28.512Z,42.24
2023-03-29T21:35:04.344Z,42.19
2023-03-29T21:37:37.528Z,42.29
2023-03-29T21:40:18.420Z,42.34
2023-03-29T21:42:51.452Z,42.34
2023-03-29T21:45:27.451Z,42.30
2023-03-29T21:48:00.771Z,42.31
2023-03-29T21:50:38.959Z,42.30
2023-03-29T21:53:14.807Z,42.44
2023-03-29T21:55:46.976Z,42.35
2023-03-29T21:58:21.076Z,42.37
2023-03-29T22:00:59.759Z,42.42
2023-03-29T22:03:36.702Z,42.43
2023-03-29T22:06:18.913Z,42.44
2023-03-29T22:08:53.223Z,42.41
2023-03-29T22:11:26.747Z,42.46
2023-03-29T22:13:58.929Z,42.43
2023-03-29T22:16:38.173Z,42.48
2023-03-29T22:19:14.784Z,42.47
2023-03-29T22:21:52.261Z,42.46
2023-03-29T22:24:28.545Z,42.44
2023-03-29T22:27:02.875Z,42.34
2023-03-29T22:29:35.563Z,42.51
2023-03-29T22:32:12.104Z,42.50
2023-03-29T22:34:47.688Z,42.34
2023-03-29T22:37:25.971Z,42.51
2023-03-29T22:39:57.746Z,42.44
2023-03-29T22:42:29.594Z,42.54
2023-03-29T22:45:07.110Z,42.64
2023-03-29T22:47:40.740Z,42.64
2023-03-29T22:50:17.460Z,42.70
2023-03-29T22:52:49.219Z,42.81
2023-03-29T22:55:26.619Z,42.88
2023-03-29T22:57:58.408Z,43.04
2023-03-29T23:00:31.318Z,42.98
2023-03-29T23:03:07.752Z,42.94
2023-03-29T23:05:39.703Z,43.05
2023-03-29T23:08:14.566Z,43.12
2023-03-29T23:10:52.424Z,43.08
2023-03-29T23:13:30.760Z,43.16
2023-03-29T23:16:09.177Z,43.18
2023-03-29T23:18:43.656Z,43.20
2023-03-29T23:21:18.283Z,43.24
2023-03-29T23:23:50.157Z,43.34
2023-03-29T23:26:26.410Z,43.26
2023-03-29T23:29:06.877Z,43.31
2023-03-29T23:31:39.904Z,43.46
2023-03-29T23:34:15.808Z,43.41
2023-03-29T23:36:49.017Z,43.45
2023-03-29T23:39:20.805Z,43.41
2023-03-29T23:41:55.915Z,43.56
2023-03-29T23:44:29.110Z,43.77
2023-03-29T23:47:02.276Z,43.66
2023-03-29T23:49:39.356Z,43.64
2023-03-29T23:52:12.586Z,43.69
2023-03-29T23:54:46.681Z,43.77
2023-03-29T23:57:21.877Z,43.89
